Time,TemperatureF,DewpointF,PressureIn,WindDirection,WindDirectionDegrees,WindSpeedMPH,WindSpeedGustMPH,Humidity,HourlyPrecipIn,Conditions,Clouds,dailyrainin,SoftwareType,DateUTC
2013-03-21 00:13:00,48.3,47.0,29.89,North,11,0.0,0.0,94,0.01,,,0.01,weatherlink.com 1.10,2013-03-21 04:13:00,
2013-03-21 00:28:00,47.8,46.0,29.89,North,11,0.0,2.0,94,0.01,,,0.01,weatherlink.com 1.10,2013-03-21 04:28:00,
2013-03-21 00:43:00,47.9,46.0,29.88,North,11,0.0,1.0,94,0.01,,,0.01,weatherlink.com 1.10,2013-03-21 04:43:00,
2013-03-21 00:58:00,47.7,46.0,29.89,North,11,0.0,1.0,94,0.00,,,0.01,weatherlink.com 1.10,2013-03-21 04:58:00,
2013-03-21 01:13:00,47.7,46.0,29.88,North,11,0.0,1.0,94,0.00,,,0.01,weatherlink.com 1.10,2013-03-21 05:13:00,
2013-03-21 01:28:00,47.4,46.0,29.89,North,11,0.0,1.0,94,0.00,,,0.01,weatherlink.com 1.10,2013-03-21 05:28:00,
2013-03-21 01:43:00,46.9,45.0,29.89,North,11,0.0,2.0,94,0.00,,,0.01,weatherlink.com 1.10,2013-03-21 05:43:00,
2013-03-21 01:58:00,47.0,45.0,29.89,North,11,0.0,2.0,94,0.00,,,0.01,weatherlink.com 1.10,2013-03-21 05:58:00,
2013-03-21 02:13:00,46.5,45.0,29.88,North,11,0.0,1.0,94,0.00,,,0.01,weatherlink.com 1.10,2013-03-21 06:13:00,
2013-03-21 02:28:00,46.3,45.0,29.88,North,11,0.0,0.0,94,0.00,,,0.01,weatherlink.com 1.10,2013-03-21 06:28:00,
2013-03-21 02:43:00,45.9,44.0,29.88,North,11,0.0,0.0,94,0.00,,,0.01,weatherlink.com 1.10,2013-03-21 06:43:00,
2013-03-21 02:58:00,45.6,44.0,29.89,North,11,0.0,3.0,94,0.00,,,0.01,weatherlink.com 1.10,2013-03-21 06:58:00,
2013-03-21 03:13:00,46.2,45.0,29.89,NNW,335,0.0,5.0,95,0.00,,,0.01,weatherlink.com 1.10,2013-03-21 07:13:00,
2013-03-21 03:28:00,45.4,44.0,29.89,WNW,298,0.0,5.0,95,0.00,,,0.01,weatherlink.com 1.10,2013-03-21 07:28:00,
2013-03-21 03:43:00,44.9,44.0,29.89,WNW,298,0.0,4.0,95,0.00,,,0.01,weatherlink.com 1.10,2013-03-21 07:43:00,
2013-03-21 03:58:00,44.0,43.0,29.89,WNW,298,1.0,5.0,95,0.00,,,0.01,weatherlink.com 1.10,2013-03-21 07:58:00,
2013-03-21 04:13:00,43.7,42.0,29.89,WNW,298,2.0,5.0,95,0.00,,,0.01,weatherlink.com 1.10,2013-03-21 08:13:00,
2013-03-21 04:28:00,42.7,41.0,29.88,WNW,298,1.0,3.0,95,0.00,,,0.01,weatherlink.com 1.10,2013-03-21 08:28:00,
2013-03-21 04:43:00,41.8,41.0,29.88,WNW,298,0.0,2.0,95,0.00,,,0.01,weatherlink.com 1.10,2013-03-21 08:43:00,
2013-03-21 04:58:00,41.1,40.0,29.88,WNW,298,0.0,0.0,95,0.00,,,0.00,weatherlink.com 1.10,2013-03-21 08:58:00,
2013-03-21 05:13:00,41.1,40.0,29.87,WNW,298,0.0,2.0,95,0.00,,,0.00,weatherlink.com 1.10,2013-03-21 09:13:00,
2013-03-21 05:28:00,40.1,39.0,29.88,WNW,298,0.0,2.0,95,0.00,,,0.00,weatherlink.com 1.10,2013-03-21 09:28:00,
2013-03-21 05:44:00,40.2,39.0,29.89,WNW,298,1.0,4.0,95,0.00,,,0.00,weatherlink.com 1.10,2013-03-21 09:44:00,
2013-03-21 05:59:00,40.5,39.0,29.89,WNW,298,2.0,5.0,95,0.00,,,0.00,weatherlink.com 1.10,2013-03-21 09:59:00,
2013-03-21 06:14:00,40.8,40.0,29.90,WNW,298,4.0,7.0,95,0.00,,,0.00,weatherlink.com 1.10,2013-03-21 10:14:00,
2013-03-21 06:29:00,40.9,40.0,29.90,NW,309,2.0,6.0,95,0.00,,,0.00,weatherlink.com 1.10,2013-03-21 10:29:00,
2013-03-21 06:44:00,40.8,40.0,29.91,North,355,5.0,12.0,95,0.00,,,0.00,weatherlink.com 1.10,2013-03-21 10:44:00,
2013-03-21 07:00:00,41.2,40.0,29.91,NW,323,4.0,11.0,95,0.00,,,0.00,weatherlink.com 1.10,2013-03-21 11:00:00,
2013-03-21 07:14:00,41.6,40.0,29.91,NW,323,4.0,9.0,93,0.00,,,0.00,weatherlink.com 1.10,2013-03-21 11:14:00,
2013-03-21 07:29:00,41.8,39.0,29.92,NNW,346,1.0,11.0,89,0.00,,,0.00,weatherlink.com 1.10,2013-03-21 11:29:00,
2013-03-21 07:44:00,41.5,38.0,29.93,West,281,1.0,4.0,88,0.00,,,0.00,weatherlink.com 1.10,2013-03-21 11:44:00,
2013-03-21 07:59:00,41.4,38.0,29.93,NW,311,8.0,8.0,88,0.00,,,0.00,weatherlink.com 1.10,2013-03-21 11:59:00,
2013-03-21 08:14:00,43.1,39.0,29.94,NNW,342,1.0,10.0,85,0.00,,,0.00,weatherlink.com 1.10,2013-03-21 12:14:00,
2013-03-21 08:29:00,45.0,39.0,29.95,NW,313,4.0,11.0,79,0.00,,,0.00,weatherlink.com 1.10,2013-03-21 12:29:00,
2013-03-21 08:44:00,47.6,39.0,29.95,NNW,330,5.0,15.0,72,0.00,,,0.00,weatherlink.com 1.10,2013-03-21 12:44:00,
2013-03-21 08:59:00,49.2,39.0,29.95,NW,326,9.0,17.0,68,0.00,,,0.00,weatherlink.com 1.10,2013-03-21 12:59:00,
2013-03-21 09:14:00,51.2,40.0,29.95,NNE,25,0.0,12.0,66,0.00,,,0.00,weatherlink.com 1.10,2013-03-21 13:14:00,
2013-03-21 09:29:00,52.9,40.0,29.96,NNE,18,9.0,14.0,61,0.00,,,0.00,weatherlink.com 1.10,2013-03-21 13:29:00,
2013-03-21 09:44:00,54.0,40.0,29.96,NNW,327,10.0,13.0,60,0.00,,,0.00,weatherlink.com 1.10,2013-03-21 13:44:00,
2013-03-21 09:59:00,54.1,39.0,29.96,North,10,8.0,17.0,57,0.00,,,0.00,weatherlink.com 1.10,2013-03-21 13:59:00,
2013-03-21 10:14:00,54.2,40.0,29.96,North,355,5.0,16.0,59,0.00,,,0.00,weatherlink.com 1.10,2013-03-21 14:14:00,
2013-03-21 10:29:00,55.8,39.0,29.95,NNW,333,3.0,14.0,53,0.00,,,0.00,weatherlink.com 1.10,2013-03-21 14:29:00,
2013-03-21 10:44:00,56.6,38.0,29.96,WNW,293,10.0,14.0,50,0.00,,,0.00,weatherlink.com 1.10,2013-03-21 14:44:00,
2013-03-21 11:00:00,57.4,39.0,29.96,NW,323,0.0,13.0,50,0.00,,,0.00,weatherlink.com 1.10,2013-03-21 15:00:00,
2013-03-21 11:15:00,58.7,40.0,29.95,NNW,336,6.0,12.0,50,0.00,,,0.00,weatherlink.com 1.10,2013-03-21 15:15:00,
2013-03-21 11:30:00,59.0,38.0,29.96,NW,315,10.0,14.0,45,0.00,,,0.00,weatherlink.com 1.10,2013-03-21 15:30:00,
2013-03-21 11:45:00,59.6,37.0,29.96,WNW,296,3.0,12.0,44,0.00,,,0.00,weatherlink.com 1.10,2013-03-21 15:45:00,
2013-03-21 12:00:00,60.5,38.0,29.96,NNW,332,6.0,9.0,44,0.00,,,0.00,weatherlink.com 1.10,2013-03-21 16:00:00,
2013-03-21 12:15:00,61.4,39.0,29.95,NW,325,4.0,12.0,43,0.00,,,0.00,weatherlink.com 1.10,2013-03-21 16:15:00,
2013-03-21 12:30:00,62.3,38.0,29.95,WSW,240,6.0,11.0,40,0.00,,,0.00,weatherlink.com 1.10,2013-03-21 16:30:00,
2013-03-21 12:45:00,63.8,41.0,29.94,East,96,3.0,10.0,44,0.00,,,0.00,weatherlink.com 1.10,2013-03-21 16:45:00,
2013-03-21 13:00:00,64.2,42.0,29.94,WNW,293,3.0,10.0,44,0.00,,,0.00,weatherlink.com 1.10,2013-03-21 17:00:00,
2013-03-21 13:15:00,65.2,39.0,29.93,NW,322,10.0,13.0,38,0.00,,,0.00,weatherlink.com 1.10,2013-03-21 17:15:00,
2013-03-21 13:30:00,65.4,36.0,29.93,WNW,288,5.0,14.0,34,0.00,,,0.00,weatherlink.com 1.10,2013-03-21 17:30:00,
2013-03-21 13:45:00,66.3,38.0,29.92,WSW,255,7.0,14.0,35,0.00,,,0.00,weatherlink.com 1.10,2013-03-21 17:45:00,
2013-03-21 14:00:00,66.2,36.0,29.91,NW,304,8.0,12.0,33,0.00,,,0.00,weatherlink.com 1.10,2013-03-21 18:00:00,
2013-03-21 14:15:00,66.7,37.0,29.91,WSW,244,3.0,14.0,33,0.00,,,0.00,weatherlink.com 1.10,2013-03-21 18:15:00,
2013-03-21 14:30:00,66.9,35.0,29.90,NW,318,5.0,14.0,31,0.00,,,0.00,weatherlink.com 1.10,2013-03-21 18:30:00,
2013-03-21 14:45:00,67.5,34.0,29.89,WNW,292,8.0,13.0,29,0.00,,,0.00,weatherlink.com 1.10,2013-03-21 18:45:00,
2013-03-21 15:01:00,67.9,33.0,29.88,WNW,296,4.0,14.0,28,0.00,,,0.00,weatherlink.com 1.10,2013-03-21 19:01:00,
2013-03-21 15:16:00,69.0,34.0,29.88,NW,315,9.0,15.0,27,0.00,,,0.00,weatherlink.com 1.10,2013-03-21 19:16:00,
2013-03-21 15:31:00,69.3,33.0,29.87,NW,308,10.0,17.0,26,0.00,,,0.00,weatherlink.com 1.10,2013-03-21 19:31:00,
2013-03-21 15:46:00,69.2,32.0,29.87,West,281,10.0,17.0,25,0.00,,,0.00,weatherlink.com 1.10,2013-03-21 19:46:00,
2013-03-21 16:02:00,69.4,30.0,29.86,WNW,300,5.0,15.0,23,0.00,,,0.00,weatherlink.com 1.10,2013-03-21 20:02:00,
2013-03-21 16:16:00,69.8,31.0,29.86,WNW,297,5.0,15.0,24,0.00,,,0.00,weatherlink.com 1.10,2013-03-21 20:16:00,
2013-03-21 16:46:00,70.3,31.0,29.86,WSW,254,2.0,16.0,23,0.00,,,0.00,weatherlink.com 1.10,2013-03-21 20:46:00,
2013-03-21 17:16:00,68.4,30.0,29.86,WNW,291,1.0,12.0,24,0.00,,,0.00,weatherlink.com 1.10,2013-03-21 21:16:00,
2013-03-21 17:46:00,67.5,28.0,29.86,WNW,285,7.0,13.0,23,0.00,,,0.00,weatherlink.com 1.10,2013-03-21 21:46:00,
2013-03-21 18:01:00,66.9,31.0,29.86,WNW,302,0.0,9.0,26,0.00,,,0.00,weatherlink.com 1.10,2013-03-21 22:01:00,
2013-03-21 18:15:00,69.1,32.0,29.86,West,264,7.0,11.0,25,0.00,,,0.00,weatherlink.com 1.10,2013-03-21 22:15:00,
2013-03-21 18:30:00,69.1,27.0,29.87,WNW,297,3.0,12.0,21,0.00,,,0.00,weatherlink.com 1.10,2013-03-21 22:30:00,
2013-03-21 18:46:00,66.7,28.0,29.86,North,355,5.0,13.0,23,0.00,,,0.00,weatherlink.com 1.10,2013-03-21 22:46:00,
2013-03-21 19:01:00,65.0,28.0,29.88,NW,318,2.0,10.0,25,0.00,,,0.00,weatherlink.com 1.10,2013-03-21 23:01:00,
2013-03-21 19:16:00,63.4,30.0,29.88,WNW,300,3.0,8.0,29,0.00,,,0.00,weatherlink.com 1.10,2013-03-21 23:16:00,
2013-03-21 19:31:00,61.7,31.0,29.89,WNW,302,0.0,3.0,32,0.00,,,0.00,weatherlink.com 1.10,2013-03-21 23:31:00,
2013-03-21 19:46:00,59.0,33.0,29.89,WNW,302,1.0,5.0,37,0.00,,,0.00,weatherlink.com 1.10,2013-03-21 23:46:00,
2013-03-21 20:01:00,56.8,32.0,29.90,NNW,342,0.0,8.0,39,0.00,,,0.00,weatherlink.com 1.10,2013-03-22 00:01:00,
2013-03-21 20:16:00,54.8,33.0,29.90,NNW,342,0.0,0.0,44,0.00,,,0.00,weatherlink.com 1.10,2013-03-22 00:16:00,
2013-03-21 20:31:00,52.9,35.0,29.90,NNW,342,0.0,1.0,50,0.00,,,0.00,weatherlink.com 1.10,2013-03-22 00:31:00,
2013-03-21 20:46:00,51.5,36.0,29.91,NNW,342,0.0,0.0,56,0.00,,,0.00,weatherlink.com 1.10,2013-03-22 00:46:00,
2013-03-21 21:01:00,50.1,39.0,29.91,NNW,342,0.0,0.0,65,0.00,,,0.00,weatherlink.com 1.10,2013-03-22 01:01:00,
2013-03-21 21:16:00,49.1,39.0,29.92,NNW,342,0.0,0.0,68,0.00,,,0.00,weatherlink.com 1.10,2013-03-22 01:16:00,
2013-03-21 21:31:00,47.8,37.0,29.92,NNW,342,0.0,0.0,66,0.00,,,0.00,weatherlink.com 1.10,2013-03-22 01:31:00,
2013-03-21 21:46:00,46.7,37.0,29.92,NNW,342,0.0,0.0,69,0.00,,,0.00,weatherlink.com 1.10,2013-03-22 01:46:00,
2013-03-21 22:01:00,46.8,37.0,29.93,NNW,342,0.0,0.0,70,0.00,,,0.00,weatherlink.com 1.10,2013-03-22 02:01:00,
2013-03-21 22:16:00,46.3,38.0,29.93,NNW,342,0.0,0.0,72,0.00,,,0.00,weatherlink.com 1.10,2013-03-22 02:16:00,
2013-03-21 22:31:00,46.1,39.0,29.93,NNW,342,0.0,0.0,77,0.00,,,0.00,weatherlink.com 1.10,2013-03-22 02:31:00,
2013-03-21 22:46:00,45.9,39.0,29.94,NNW,342,0.0,0.0,78,0.00,,,0.00,weatherlink.com 1.10,2013-03-22 02:46:00,
2013-03-21 23:01:00,44.9,39.0,29.94,NNW,342,0.0,0.0,79,0.00,,,0.00,weatherlink.com 1.10,2013-03-22 03:01:00,
2013-03-21 23:16:00,44.9,40.0,29.95,NNW,342,0.0,0.0,84,0.00,,,0.00,weatherlink.com 1.10,2013-03-22 03:16:00,
2013-03-21 23:31:00,44.2,40.0,29.95,NNW,342,0.0,0.0,84,0.00,,,0.00,weatherlink.com 1.10,2013-03-22 03:31:00,
2013-03-21 23:46:00,43.7,40.0,29.95,NNW,342,0.0,0.0,85,0.00,,,0.00,weatherlink.com 1.10,2013-03-22 03:46:00,